PIA368 OPKC-OPIS
Flight info
| Callsign | PIA368 |
|---|---|
| Flight time | N/A |
| Altitude | 37000 |
| Route | BADUL J112 MOLTA J142 MATIN J121 INDEK |
| Aircraft | B772/H-SDE2E3FGHIJ5LORVWXY/LB1D1 |
Departure
| Time | 2026-04-27 10:54 |
|---|---|
| Airport | Jinnah International Airport (OPKC) |
Arrival
| Time | N/A |
|---|---|
| Airport | Islamabad International Airport (OPIS) |
| Time | Latitude | Longitude | Altitude | Speed | Heading |
|---|---|---|---|---|---|
| 2026-04-27 09:55 | 24.90241 | 67.16579 | 114 ft | 0 kts | 164° |
| 2026-04-27 10:44 | 24.90241 | 67.16578 | 106 ft | 0 kts | 164° |
| 2026-04-27 10:46 | 24.90243 | 67.16578 | 106 ft | 2 kts | 164° |
| 2026-04-27 10:46 | 24.90269 | 67.16571 | 105 ft | 4 kts | 171° |
| 2026-04-27 10:46 | 24.90295 | 67.16566 | 104 ft | 4 kts | 160° |
| 2026-04-27 10:47 | 24.90311 | 67.16556 | 107 ft | 3 kts | 129° |
| 2026-04-27 10:47 | 24.90320 | 67.16537 | 105 ft | 4 kts | 87° |
| 2026-04-27 10:47 | 24.90315 | 67.16508 | 105 ft | 3 kts | 74° |
| 2026-04-27 10:47 | 24.90314 | 67.16503 | 104 ft | 0 kts | 74° |
| 2026-04-27 10:49 | 24.90315 | 67.16505 | 105 ft | 1 kts | 74° |
| 2026-04-27 10:49 | 24.90318 | 67.16519 | 105 ft | 3 kts | 74° |
| 2026-04-27 10:49 | 24.90326 | 67.16551 | 104 ft | 6 kts | 74° |
| 2026-04-27 10:50 | 24.90339 | 67.16603 | 107 ft | 8 kts | 75° |
| 2026-04-27 10:50 | 24.90357 | 67.16674 | 108 ft | 11 kts | 75° |
| 2026-04-27 10:50 | 24.90379 | 67.16763 | 106 ft | 13 kts | 75° |
| 2026-04-27 10:50 | 24.90404 | 67.16869 | 106 ft | 16 kts | 75° |
| 2026-04-27 10:51 | 24.90430 | 67.16977 | 107 ft | 13 kts | 75° |
| 2026-04-27 10:51 | 24.90471 | 67.17044 | 108 ft | 10 kts | 19° |
| 2026-04-27 10:51 | 24.90539 | 67.17031 | 107 ft | 10 kts | 2° |
| 2026-04-27 10:51 | 24.90578 | 67.17098 | 107 ft | 12 kts | 73° |
| 2026-04-27 10:52 | 24.90604 | 67.17193 | 107 ft | 14 kts | 73° |
| 2026-04-27 10:52 | 24.90634 | 67.17309 | 107 ft | 18 kts | 76° |
| 2026-04-27 10:52 | 24.90703 | 67.17436 | 107 ft | 22 kts | 34° |
| 2026-04-27 10:52 | 24.90800 | 67.17496 | 109 ft | 12 kts | 17° |
| 2026-04-27 10:53 | 24.90868 | 67.17466 | 110 ft | 11 kts | 297° |
| 2026-04-27 10:53 | 24.90851 | 67.17379 | 110 ft | 6 kts | 255° |
| 2026-04-27 10:53 | 24.90791 | 67.17134 | 110 ft | 72 kts | 255° |
| 2026-04-27 10:54 | 24.90579 | 67.16308 | 109 ft | 148 kts | 254° |
| 2026-04-27 10:54 | 24.90248 | 67.15057 | 471 ft | 183 kts | 253° |
| 2026-04-27 10:54 | 24.89955 | 67.13676 | 1437 ft | 175 kts | 271° |
| 2026-04-27 10:54 | 24.90331 | 67.12429 | 2514 ft | 179 kts | 303° |
| 2026-04-27 10:55 | 24.91394 | 67.11521 | 2930 ft | 215 kts | 334° |
| 2026-04-27 10:55 | 24.92981 | 67.11329 | 3286 ft | 245 kts | 6° |
| 2026-04-27 10:55 | 24.94582 | 67.12031 | 3886 ft | 258 kts | 32° |
| 2026-04-27 10:55 | 24.95989 | 67.13296 | 4538 ft | 262 kts | 39° |
| 2026-04-27 10:56 | 24.97361 | 67.14653 | 5223 ft | 266 kts | 40° |
| 2026-04-27 10:56 | 24.98751 | 67.16049 | 5828 ft | 276 kts | 40° |
| 2026-04-27 10:56 | 25.00204 | 67.17509 | 6461 ft | 282 kts | 40° |
| 2026-04-27 10:56 | 25.01664 | 67.18968 | 7247 ft | 282 kts | 41° |
| 2026-04-27 10:57 | 25.03108 | 67.20405 | 8107 ft | 280 kts | 42° |
| 2026-04-27 10:57 | 25.04574 | 67.21860 | 8638 ft | 289 kts | 42° |
| 2026-04-27 10:57 | 25.06072 | 67.23343 | 9415 ft | 289 kts | 42° |
| 2026-04-27 10:57 | 25.07584 | 67.24836 | 9988 ft | 296 kts | 42° |
| 2026-04-27 10:58 | 25.09186 | 67.26416 | 10185 ft | 318 kts | 42° |
| 2026-04-27 10:58 | 25.10900 | 67.28106 | 10353 ft | 341 kts | 42° |
| 2026-04-27 10:58 | 25.12729 | 67.29908 | 10568 ft | 363 kts | 42° |
| 2026-04-27 10:58 | 25.14617 | 67.31767 | 11207 ft | 372 kts | 42° |
| 2026-04-27 10:59 | 25.16561 | 67.33681 | 12035 ft | 377 kts | 42° |
| 2026-04-27 10:59 | 25.18532 | 67.35621 | 12929 ft | 382 kts | 42° |
| 2026-04-27 10:59 | 25.20527 | 67.37584 | 13814 ft | 386 kts | 42° |
| 2026-04-27 11:00 | 25.24576 | 67.41574 | 15462 ft | 393 kts | 42° |
| 2026-04-27 11:00 | 25.26626 | 67.43596 | 16220 ft | 397 kts | 42° |
| 2026-04-27 11:00 | 25.28696 | 67.45639 | 16984 ft | 401 kts | 42° |
| 2026-04-27 11:00 | 25.30758 | 67.47675 | 17719 ft | 404 kts | 41° |
| 2026-04-27 11:01 | 25.32867 | 67.49759 | 18359 ft | 409 kts | 41° |
| 2026-04-27 11:01 | 25.35005 | 67.51871 | 18936 ft | 414 kts | 41° |
| 2026-04-27 11:01 | 25.37164 | 67.54007 | 19513 ft | 419 kts | 41° |
| 2026-04-27 11:01 | 25.39346 | 67.56165 | 20085 ft | 423 kts | 41° |
| 2026-04-27 11:02 | 25.41553 | 67.58351 | 20633 ft | 428 kts | 41° |
| 2026-04-27 11:02 | 25.43782 | 67.60560 | 21185 ft | 432 kts | 41° |
| 2026-04-27 11:02 | 25.46040 | 67.62798 | 21716 ft | 437 kts | 40° |
| 2026-04-27 11:02 | 25.48291 | 67.65032 | 22237 ft | 441 kts | 40° |
| 2026-04-27 11:03 | 25.50588 | 67.67308 | 22751 ft | 445 kts | 40° |
| 2026-04-27 11:03 | 25.52906 | 67.69609 | 23237 ft | 449 kts | 40° |
| 2026-04-27 11:03 | 25.55250 | 67.71939 | 23662 ft | 453 kts | 40° |
| 2026-04-27 11:03 | 25.57612 | 67.74289 | 24118 ft | 456 kts | 40° |
| 2026-04-27 11:04 | 25.59981 | 67.76645 | 24573 ft | 459 kts | 40° |
| 2026-04-27 11:04 | 25.62340 | 67.78993 | 25004 ft | 462 kts | 40° |
| 2026-04-27 11:04 | 25.64748 | 67.81389 | 25406 ft | 467 kts | 40° |
| 2026-04-27 11:04 | 25.67182 | 67.83813 | 25864 ft | 470 kts | 40° |
| 2026-04-27 11:05 | 25.69616 | 67.86238 | 26343 ft | 472 kts | 40° |
| 2026-04-27 11:05 | 25.71237 | 67.87855 | 26630 ft | 474 kts | 40° |
| 2026-04-27 11:05 | 25.74502 | 67.91113 | 27256 ft | 477 kts | 40° |
| 2026-04-27 11:05 | 25.76983 | 67.93590 | 27681 ft | 481 kts | 40° |
| 2026-04-27 11:06 | 25.78637 | 67.95242 | 27939 ft | 483 kts | 40° |
| 2026-04-27 11:06 | 25.81148 | 67.97754 | 28397 ft | 486 kts | 40° |
| 2026-04-27 11:06 | 25.83675 | 68.00281 | 28814 ft | 489 kts | 40° |
| 2026-04-27 11:06 | 25.86221 | 68.02829 | 29143 ft | 494 kts | 40° |
| 2026-04-27 11:07 | 25.88754 | 68.05365 | 29567 ft | 496 kts | 40° |
| 2026-04-27 11:07 | 25.91326 | 68.07942 | 29952 ft | 498 kts | 40° |
| 2026-04-27 11:07 | 25.93909 | 68.10531 | 30302 ft | 500 kts | 40° |
| 2026-04-27 11:07 | 25.96499 | 68.13129 | 30641 ft | 502 kts | 40° |
| 2026-04-27 11:08 | 25.99095 | 68.15734 | 30950 ft | 503 kts | 40° |
| 2026-04-27 11:08 | 26.01698 | 68.18350 | 31265 ft | 504 kts | 40° |
| 2026-04-27 11:08 | 26.04271 | 68.20937 | 31572 ft | 505 kts | 40° |
| 2026-04-27 11:08 | 26.06878 | 68.23559 | 31927 ft | 505 kts | 40° |
| 2026-04-27 11:09 | 26.09482 | 68.26180 | 32338 ft | 503 kts | 40° |
| 2026-04-27 11:09 | 26.12068 | 68.28784 | 32777 ft | 501 kts | 40° |
| 2026-04-27 11:09 | 26.14650 | 68.31387 | 33243 ft | 499 kts | 40° |
| 2026-04-27 11:09 | 26.17219 | 68.33977 | 33659 ft | 497 kts | 40° |
| 2026-04-27 11:10 | 26.19780 | 68.36559 | 33968 ft | 497 kts | 40° |
| 2026-04-27 11:10 | 26.22371 | 68.39110 | 34250 ft | 497 kts | 37° |
| 2026-04-27 11:10 | 26.25097 | 68.41499 | 34504 ft | 498 kts | 35° |
| 2026-04-27 11:10 | 26.27867 | 68.43840 | 34792 ft | 498 kts | 34° |
| 2026-04-27 11:11 | 26.30606 | 68.46132 | 35106 ft | 498 kts | 34° |
| 2026-04-27 11:11 | 26.33383 | 68.48461 | 35414 ft | 498 kts | 34° |
| 2026-04-27 11:11 | 26.36148 | 68.50795 | 35703 ft | 498 kts | 34° |
| 2026-04-27 11:11 | 26.38908 | 68.53140 | 35991 ft | 498 kts | 34° |
| 2026-04-27 11:12 | 26.41665 | 68.55491 | 36289 ft | 498 kts | 34° |
| 2026-04-27 11:12 | 26.44388 | 68.57819 | 36568 ft | 499 kts | 34° |
| 2026-04-27 11:12 | 26.47147 | 68.60178 | 36848 ft | 499 kts | 34° |
| 2026-04-27 11:12 | 26.49907 | 68.62540 | 37129 ft | 499 kts | 34° |
| 2026-04-27 11:13 | 26.52668 | 68.64904 | 37405 ft | 499 kts | 34° |
| 2026-04-27 11:13 | 26.55426 | 68.67265 | 37681 ft | 499 kts | 34° |
| 2026-04-27 11:13 | 26.58188 | 68.69630 | 37953 ft | 499 kts | 34° |
| 2026-04-27 11:13 | 26.60916 | 68.71968 | 38184 ft | 499 kts | 34° |
| 2026-04-27 11:14 | 26.63677 | 68.74325 | 38418 ft | 499 kts | 34° |
| 2026-04-27 11:14 | 26.66443 | 68.76678 | 38625 ft | 499 kts | 34° |
| 2026-04-27 11:14 | 26.69209 | 68.79028 | 38843 ft | 499 kts | 34° |
| 2026-04-27 11:14 | 26.71972 | 68.81377 | 39056 ft | 498 kts | 34° |
| 2026-04-27 11:15 | 26.74736 | 68.83728 | 39257 ft | 498 kts | 34° |
| 2026-04-27 11:15 | 26.77497 | 68.86080 | 39459 ft | 498 kts | 34° |
| 2026-04-27 11:15 | 26.80224 | 68.88407 | 39656 ft | 498 kts | 34° |
| 2026-04-27 11:15 | 26.82985 | 68.90765 | 39856 ft | 497 kts | 34° |
| 2026-04-27 11:16 | 26.85737 | 68.93117 | 40054 ft | 497 kts | 34° |
| 2026-04-27 11:16 | 26.88489 | 68.95471 | 40239 ft | 497 kts | 34° |
| 2026-04-27 11:16 | 26.91243 | 68.97827 | 40417 ft | 497 kts | 34° |
| 2026-04-27 11:16 | 26.94001 | 69.00188 | 40487 ft | 499 kts | 34° |
| 2026-04-27 11:17 | 26.99516 | 69.04912 | 40560 ft | 502 kts | 34° |
| 2026-04-27 11:17 | 27.05037 | 69.09651 | 40552 ft | 497 kts | 34° |
| 2026-04-27 11:18 | 27.10512 | 69.14357 | 40556 ft | 493 kts | 34° |
| 2026-04-27 11:18 | 27.15917 | 69.19005 | 40564 ft | 490 kts | 34° |
| 2026-04-27 11:19 | 27.21332 | 69.23669 | 40564 ft | 490 kts | 34° |
| 2026-04-27 11:19 | 27.26712 | 69.28308 | 40566 ft | 490 kts | 34° |
| 2026-04-27 11:20 | 27.32107 | 69.33054 | 40568 ft | 493 kts | 35° |
| 2026-04-27 11:20 | 27.37487 | 69.37863 | 40574 ft | 494 kts | 35° |
| 2026-04-27 11:21 | 27.42878 | 69.42686 | 40568 ft | 496 kts | 35° |
| 2026-04-27 11:21 | 27.48270 | 69.47501 | 40573 ft | 496 kts | 35° |
| 2026-04-27 11:22 | 27.53695 | 69.52347 | 40570 ft | 496 kts | 35° |
| 2026-04-27 11:22 | 27.59107 | 69.57186 | 40572 ft | 496 kts | 35° |
| 2026-04-27 11:23 | 27.64489 | 69.62007 | 40573 ft | 495 kts | 35° |
| 2026-04-27 11:23 | 27.69897 | 69.66857 | 40576 ft | 495 kts | 35° |
| 2026-04-27 11:24 | 27.75257 | 69.71670 | 40574 ft | 494 kts | 35° |
| 2026-04-27 11:24 | 27.80643 | 69.76513 | 40579 ft | 494 kts | 35° |
| 2026-04-27 11:25 | 27.85995 | 69.81331 | 40586 ft | 493 kts | 35° |
| 2026-04-27 11:25 | 27.91370 | 69.86176 | 40581 ft | 494 kts | 35° |
| 2026-04-27 11:26 | 27.96726 | 69.91010 | 40566 ft | 495 kts | 35° |
| 2026-04-27 11:26 | 28.02116 | 69.95882 | 40574 ft | 496 kts | 36° |
| 2026-04-27 11:27 | 28.07525 | 70.00777 | 40583 ft | 497 kts | 36° |
| 2026-04-27 11:27 | 28.12908 | 70.05655 | 40579 ft | 498 kts | 36° |
| 2026-04-27 11:28 | 28.18335 | 70.10580 | 40581 ft | 499 kts | 36° |
| 2026-04-27 11:28 | 28.23768 | 70.15518 | 40584 ft | 501 kts | 36° |
| 2026-04-27 11:29 | 28.29185 | 70.20449 | 40590 ft | 501 kts | 36° |
| 2026-04-27 11:29 | 28.34641 | 70.25419 | 40586 ft | 502 kts | 36° |
| 2026-04-27 11:30 | 28.39771 | 70.30857 | 40595 ft | 506 kts | 44° |
| 2026-04-27 11:30 | 28.44514 | 70.36721 | 40586 ft | 506 kts | 45° |
| 2026-04-27 11:31 | 28.49272 | 70.42658 | 40589 ft | 507 kts | 45° |
| 2026-04-27 11:31 | 28.54049 | 70.48558 | 40588 ft | 507 kts | 44° |
| 2026-04-27 11:32 | 28.58818 | 70.54419 | 40592 ft | 507 kts | 44° |
| 2026-04-27 11:32 | 28.63617 | 70.60319 | 40595 ft | 507 kts | 44° |
| 2026-04-27 11:33 | 28.68411 | 70.66225 | 40589 ft | 507 kts | 44° |
| 2026-04-27 11:33 | 28.73184 | 70.72117 | 40593 ft | 507 kts | 44° |
| 2026-04-27 11:34 | 28.77974 | 70.78040 | 40592 ft | 507 kts | 44° |
| 2026-04-27 11:34 | 28.82759 | 70.83963 | 40591 ft | 507 kts | 44° |
| 2026-04-27 11:35 | 28.87516 | 70.89861 | 40590 ft | 507 kts | 44° |
| 2026-04-27 11:35 | 28.92293 | 70.95794 | 40590 ft | 507 kts | 44° |
| 2026-04-27 11:36 | 28.97067 | 71.01729 | 40592 ft | 507 kts | 44° |
| 2026-04-27 11:36 | 29.01849 | 71.07685 | 40593 ft | 507 kts | 44° |
| 2026-04-27 11:37 | 29.06590 | 71.13599 | 40598 ft | 507 kts | 44° |
| 2026-04-27 11:37 | 29.11346 | 71.19539 | 40598 ft | 507 kts | 44° |
| 2026-04-27 11:38 | 29.16082 | 71.25463 | 40601 ft | 507 kts | 44° |
| 2026-04-27 11:38 | 29.20847 | 71.31433 | 40600 ft | 507 kts | 44° |
| 2026-04-27 11:39 | 29.25618 | 71.37420 | 40607 ft | 507 kts | 44° |
| 2026-04-27 11:39 | 29.30349 | 71.43367 | 40593 ft | 508 kts | 45° |
| 2026-04-27 11:40 | 29.35076 | 71.49416 | 40600 ft | 509 kts | 45° |
| 2026-04-27 11:40 | 29.39781 | 71.55493 | 40599 ft | 509 kts | 45° |
| 2026-04-27 11:41 | 29.44469 | 71.61546 | 40602 ft | 510 kts | 45° |
| 2026-04-27 11:41 | 29.49202 | 71.67655 | 40603 ft | 510 kts | 45° |
| 2026-04-27 11:42 | 29.53923 | 71.73755 | 40603 ft | 511 kts | 45° |
| 2026-04-27 11:42 | 29.58615 | 71.79826 | 40599 ft | 512 kts | 45° |
| 2026-04-27 11:43 | 29.63348 | 71.85961 | 40597 ft | 512 kts | 46° |
| 2026-04-27 11:43 | 29.68078 | 71.92103 | 40597 ft | 512 kts | 46° |
| 2026-04-27 11:44 | 29.72786 | 71.98225 | 40591 ft | 513 kts | 46° |
| 2026-04-27 11:44 | 29.77513 | 72.04381 | 40592 ft | 513 kts | 46° |
| 2026-04-27 11:45 | 29.81441 | 72.09505 | 40590 ft | 513 kts | 46° |
| 2026-04-27 11:45 | 29.86934 | 72.16680 | 40599 ft | 512 kts | 46° |
| 2026-04-27 11:46 | 29.91642 | 72.22851 | 40595 ft | 513 kts | 46° |
| 2026-04-27 11:46 | 29.96353 | 72.29049 | 40602 ft | 513 kts | 46° |
| 2026-04-27 11:47 | 30.01027 | 72.35207 | 40605 ft | 513 kts | 46° |
| 2026-04-27 11:47 | 30.05724 | 72.41404 | 40611 ft | 513 kts | 46° |
| 2026-04-27 11:48 | 30.10430 | 72.47622 | 40615 ft | 514 kts | 46° |
| 2026-04-27 11:48 | 30.15134 | 72.53847 | 40620 ft | 514 kts | 46° |
| 2026-04-27 11:49 | 30.19909 | 72.59999 | 40619 ft | 512 kts | 42° |
| 2026-04-27 11:49 | 30.25270 | 72.65287 | 40630 ft | 509 kts | 34° |
| 2026-04-27 11:50 | 30.30874 | 72.70303 | 40624 ft | 509 kts | 34° |
| 2026-04-27 11:50 | 30.36484 | 72.75352 | 40629 ft | 510 kts | 34° |
| 2026-04-27 11:51 | 30.42061 | 72.80439 | 40631 ft | 510 kts | 35° |
| 2026-04-27 11:52 | 30.50393 | 72.88093 | 40635 ft | 511 kts | 35° |
| 2026-04-27 11:52 | 30.55046 | 72.92374 | 40639 ft | 511 kts | 35° |
| 2026-04-27 11:53 | 30.61532 | 72.98345 | 40639 ft | 512 kts | 35° |
| 2026-04-27 11:53 | 30.66210 | 73.02657 | 40647 ft | 512 kts | 35° |
| 2026-04-27 11:54 | 30.71752 | 73.07774 | 40647 ft | 512 kts | 35° |
| 2026-04-27 11:54 | 30.77334 | 73.12934 | 40646 ft | 512 kts | 35° |
| 2026-04-27 11:55 | 30.82913 | 73.18100 | 40646 ft | 512 kts | 35° |
| 2026-04-27 11:55 | 30.88489 | 73.23272 | 40646 ft | 512 kts | 35° |
| 2026-04-27 11:56 | 30.94032 | 73.28420 | 40648 ft | 512 kts | 35° |
| 2026-04-27 11:56 | 30.99614 | 73.33612 | 40649 ft | 512 kts | 35° |
| 2026-04-27 11:57 | 31.05179 | 73.38798 | 40650 ft | 512 kts | 35° |
| 2026-04-27 11:57 | 31.10705 | 73.43954 | 40648 ft | 512 kts | 35° |
| 2026-04-27 11:58 | 31.16272 | 73.49157 | 40649 ft | 512 kts | 35° |
| 2026-04-27 11:58 | 31.21844 | 73.54372 | 40655 ft | 512 kts | 35° |
| 2026-04-27 11:59 | 31.27412 | 73.59592 | 40652 ft | 512 kts | 35° |
| 2026-04-27 11:59 | 31.32972 | 73.64814 | 40651 ft | 513 kts | 35° |
| 2026-04-27 12:00 | 31.38501 | 73.70014 | 40651 ft | 513 kts | 35° |
| 2026-04-27 12:00 | 31.44083 | 73.75271 | 40652 ft | 513 kts | 35° |
| 2026-04-27 12:01 | 31.49648 | 73.80523 | 40656 ft | 513 kts | 35° |
| 2026-04-27 12:01 | 31.55184 | 73.85756 | 40669 ft | 513 kts | 35° |
| 2026-04-27 12:02 | 31.60753 | 73.91029 | 40661 ft | 514 kts | 35° |
| 2026-04-27 12:02 | 31.66310 | 73.96229 | 40649 ft | 510 kts | 30° |
| 2026-04-27 12:02 | 31.69370 | 73.98270 | 40668 ft | 501 kts | 18° |
| 2026-04-27 12:03 | 31.72623 | 73.99662 | 40676 ft | 495 kts | 11° |
| 2026-04-27 12:03 | 31.75970 | 74.00477 | 40634 ft | 487 kts | 360° |
| 2026-04-27 12:03 | 31.79331 | 74.00681 | 40479 ft | 480 kts | 355° |
| 2026-04-27 12:03 | 31.82685 | 74.00726 | 40070 ft | 481 kts | 355° |
| 2026-04-27 12:04 | 31.86045 | 74.00827 | 39564 ft | 486 kts | 356° |
| 2026-04-27 12:04 | 31.89428 | 74.00959 | 39028 ft | 485 kts | 353° |
| 2026-04-27 12:04 | 31.92752 | 74.00454 | 38433 ft | 479 kts | 340° |
| 2026-04-27 12:04 | 31.95876 | 73.99153 | 37779 ft | 473 kts | 329° |
| 2026-04-27 12:05 | 31.97151 | 73.98384 | 37486 ft | 470 kts | 324° |
| 2026-04-27 12:05 | 31.99773 | 73.96220 | 37083 ft | 450 kts | 314° |